createdAt,value
2019-02-02T00:00:45.346Z,99.99
2019-02-02T00:01:45.327Z,99.99
2019-02-02T00:02:45.310Z,99.99
2019-02-02T00:03:45.296Z,99.99
2019-02-02T00:04:45.277Z,99.99
2019-02-02T00:05:45.261Z,99.99
2019-02-02T00:06:45.244Z,99.99
2019-02-02T00:07:45.228Z,99.99
2019-02-02T00:08:45.212Z,99.99
2019-02-02T00:09:45.198Z,99.99
2019-02-02T00:10:45.182Z,99.99
2019-02-02T00:11:45.164Z,99.99
2019-02-02T00:12:45.150Z,99.99
2019-02-02T00:13:45.136Z,99.99
2019-02-02T00:14:47.737Z,99.99
2019-02-02T00:15:45.103Z,99.99
2019-02-02T00:16:45.084Z,99.99
2019-02-02T00:17:45.072Z,99.99
2019-02-02T00:18:45.053Z,99.99
2019-02-02T00:19:45.034Z,99.99
2019-02-02T00:20:45.018Z,99.99
2019-02-02T00:21:45.007Z,99.99
2019-02-02T00:22:44.988Z,99.99
2019-02-02T00:23:44.971Z,99.99
2019-02-02T00:24:44.958Z,99.99
2019-02-02T00:25:44.936Z,99.99
2019-02-02T00:26:44.921Z,99.99
2019-02-02T00:27:44.907Z,99.99
2019-02-02T00:28:44.892Z,99.99
2019-02-02T00:29:44.872Z,99.99
2019-02-02T00:30:44.856Z,99.99
2019-02-02T00:31:44.839Z,99.99
2019-02-02T00:32:44.975Z,99.99
2019-02-02T00:33:44.811Z,99.99
2019-02-02T00:34:44.792Z,99.99
2019-02-02T00:35:44.773Z,99.99
2019-02-02T00:36:44.757Z,99.99
2019-02-02T00:37:44.741Z,99.99
2019-02-02T00:38:44.733Z,99.99
2019-02-02T00:39:44.708Z,99.99
2019-02-02T00:40:44.691Z,99.99
2019-02-02T00:41:44.677Z,99.99
2019-02-02T00:42:44.659Z,99.99
2019-02-02T00:43:44.642Z,99.99
2019-02-02T00:44:44.625Z,99.99
2019-02-02T00:45:44.610Z,99.99
2019-02-02T00:46:44.599Z,99.99
2019-02-02T00:47:44.579Z,99.99
2019-02-02T00:48:44.560Z,99.95
2019-02-02T00:49:44.544Z,99.95
2019-02-02T00:50:44.530Z,99.99
2019-02-02T00:51:44.513Z,99.95
2019-02-02T00:52:44.494Z,99.99
2019-02-02T00:53:44.482Z,99.66
2019-02-02T00:54:44.464Z,99.66
2019-02-02T00:55:44.444Z,99.57
2019-02-02T00:56:44.429Z,99.66
2019-02-02T00:57:55.438Z,99.66
2019-02-02T00:58:44.410Z,99.66
2019-02-02T00:59:44.380Z,99.57
2019-02-02T01:00:44.361Z,99.38
2019-02-02T01:01:44.349Z,99.19
2019-02-02T01:02:44.350Z,99.57
2019-02-02T01:03:44.315Z,99.19
2019-02-02T01:04:44.058Z,99.19
2019-02-02T01:05:44.280Z,99.48
2019-02-02T01:06:44.265Z,99.1
2019-02-02T01:07:44.250Z,99.01
2019-02-02T01:08:44.234Z,99.01
2019-02-02T01:09:44.216Z,98.82
2019-02-02T01:10:44.200Z,99.29
2019-02-02T01:11:44.180Z,99.01
2019-02-02T01:12:44.163Z,99.1
2019-02-02T01:13:44.148Z,99.19
2019-02-02T01:14:44.132Z,99.01
2019-02-02T01:15:44.115Z,99.01
2019-02-02T01:16:44.111Z,99.01
2019-02-02T01:17:44.082Z,99.01
2019-02-02T01:18:44.065Z,99.29
2019-02-02T01:19:44.048Z,98.72
2019-02-02T01:20:44.033Z,98.72
2019-02-02T01:21:44.017Z,98.72
2019-02-02T01:22:44.002Z,98.72
2019-02-02T01:23:43.992Z,98.91
2019-02-02T01:24:43.967Z,98.44
2019-02-02T01:25:43.950Z,98.44
2019-02-02T01:26:43.934Z,98.34
2019-02-02T01:27:43.917Z,98.53
2019-02-02T01:28:43.901Z,98.82
2019-02-02T01:29:43.884Z,98.63
2019-02-02T01:30:43.868Z,98.91
2019-02-02T01:31:43.849Z,98.53
2019-02-02T01:32:43.593Z,98.91
2019-02-02T01:33:43.821Z,99.01
2019-02-02T01:34:43.808Z,98.53
2019-02-02T01:35:43.786Z,98.82
2019-02-02T01:36:43.773Z,98.53
2019-02-02T01:37:43.756Z,99.1
2019-02-02T01:38:43.740Z,98.63
2019-02-02T01:39:43.721Z,98.72
2019-02-02T01:40:43.708Z,98.15
2019-02-02T01:41:43.687Z,98.53
2019-02-02T01:42:43.685Z,98.44
2019-02-02T01:43:43.655Z,98.15
2019-02-02T01:44:43.640Z,98.34
2019-02-02T01:45:43.627Z,98.72
2019-02-02T01:46:43.608Z,98.25
2019-02-02T01:47:43.590Z,98.44
2019-02-02T01:48:43.572Z,98.53
2019-02-02T01:49:43.566Z,98.72
2019-02-02T01:50:43.542Z,98.34
2019-02-02T01:51:43.524Z,98.06
2019-02-02T01:52:43.508Z,98.34
2019-02-02T01:53:43.490Z,97.87
2019-02-02T01:54:43.474Z,97.68
2019-02-02T01:55:43.577Z,98.25
2019-02-02T01:56:43.441Z,97.58
2019-02-02T01:57:43.425Z,97.68
2019-02-02T01:58:43.408Z,97.58
2019-02-02T01:59:43.390Z,97.49
2019-02-02T02:00:43.378Z,97.68
2019-02-02T02:01:44.218Z,97.68
2019-02-02T02:02:43.345Z,97.87
2019-02-02T02:03:43.328Z,97.77
2019-02-02T02:04:43.330Z,97.68
2019-02-02T02:05:43.293Z,97.68
2019-02-02T02:06:43.404Z,97.77
2019-02-02T02:07:43.262Z,97.68
2019-02-02T02:08:43.275Z,97.87
2019-02-02T02:09:43.228Z,97.58
2019-02-02T02:10:43.213Z,97.87
2019-02-02T02:11:43.201Z,97.68
2019-02-02T02:12:43.179Z,97.96
2019-02-02T02:13:43.167Z,97.68
2019-02-02T02:14:43.150Z,97.68
2019-02-02T02:15:43.127Z,97.77
2019-02-02T02:16:43.118Z,97.96
2019-02-02T02:17:43.095Z,97.58
2019-02-02T02:18:43.080Z,97.68
2019-02-02T02:19:43.062Z,97.77
2019-02-02T02:20:43.048Z,97.44
2019-02-02T02:21:43.029Z,97.77
2019-02-02T02:22:43.961Z,97.87
2019-02-02T02:23:42.995Z,97.68
2019-02-02T02:24:43.049Z,97.68
2019-02-02T02:25:42.963Z,97.87
2019-02-02T02:26:42.946Z,97.87
2019-02-02T02:27:42.952Z,97.68
2019-02-02T02:28:42.911Z,97.58
2019-02-02T02:29:42.896Z,97.68
2019-02-02T02:30:42.879Z,97.87
2019-02-02T02:31:42.879Z,97.82
2019-02-02T02:32:42.847Z,98.06
2019-02-02T02:33:42.831Z,97.25
2019-02-02T02:34:42.813Z,97.49
2019-02-02T02:35:42.802Z,97.39
2019-02-02T02:36:42.779Z,97.2
2019-02-02T02:37:42.763Z,97.2
2019-02-02T02:38:42.748Z,97.02
2019-02-02T02:39:42.731Z,97.06
2019-02-02T02:40:42.716Z,97.11
2019-02-02T02:41:42.695Z,97.11
2019-02-02T02:42:42.680Z,96.64
2019-02-02T02:43:42.662Z,96.54
2019-02-02T02:44:42.649Z,96.92
2019-02-02T02:45:42.631Z,96.26
2019-02-02T02:46:42.614Z,96.45
2019-02-02T02:47:42.596Z,96.64
2019-02-02T02:48:42.582Z,96.26
2019-02-02T02:49:42.586Z,96.45
2019-02-02T02:50:42.546Z,96.07
2019-02-02T02:51:42.537Z,96.26
2019-02-02T02:52:42.514Z,96.26
2019-02-02T02:53:42.498Z,96.35
2019-02-02T02:54:42.483Z,96.26
2019-02-02T02:55:42.464Z,96.16
2019-02-02T02:56:42.626Z,96.07
2019-02-02T02:57:42.429Z,96.16
2019-02-02T02:58:44.256Z,96.73
2019-02-02T02:59:42.402Z,96.35
2019-02-02T03:00:42.380Z,96.35
2019-02-02T03:01:42.363Z,96.54
2019-02-02T03:02:42.347Z,96.35
2019-02-02T03:03:42.337Z,96.35
2019-02-02T03:04:42.314Z,96.45
2019-02-02T03:05:42.300Z,96.64
2019-02-02T03:06:42.285Z,96.73
2019-02-02T03:07:42.264Z,96.45
2019-02-02T03:08:42.247Z,96.73
2019-02-02T03:09:42.234Z,96.54
2019-02-02T03:10:42.215Z,96.45
2019-02-02T03:11:42.209Z,96.5
2019-02-02T03:12:42.179Z,96.54
2019-02-02T03:13:42.167Z,96.4
2019-02-02T03:14:42.153Z,96.21
2019-02-02T03:15:42.136Z,96.5
2019-02-02T03:16:42.117Z,96.31
2019-02-02T03:17:42.206Z,96.31
2019-02-02T03:18:42.081Z,96.5
2019-02-02T03:19:42.069Z,96.12
2019-02-02T03:20:42.049Z,96.21
2019-02-02T03:21:43.816Z,96.5
2019-02-02T03:22:42.019Z,96.12
2019-02-02T03:23:41.998Z,96.12
2019-02-02T03:24:41.982Z,95.93
2019-02-02T03:25:41.972Z,96.4
2019-02-02T03:26:41.951Z,95.69
2019-02-02T03:27:41.930Z,95.69
2019-02-02T03:28:52.782Z,95.78
2019-02-02T03:29:41.923Z,95.69
2019-02-02T03:30:41.893Z,95.78
2019-02-02T03:31:41.883Z,95.59
2019-02-02T03:32:41.878Z,95.69
2019-02-02T03:33:41.834Z,95.55
2019-02-02T03:34:41.813Z,95.59
2019-02-02T03:35:41.798Z,95.69
2019-02-02T03:36:41.784Z,95.59
2019-02-02T03:37:41.768Z,95.97
2019-02-02T03:38:41.747Z,95.4
2019-02-02T03:39:41.741Z,95.21
2019-02-02T03:40:41.722Z,95.5
2019-02-02T03:41:41.695Z,94.93
2019-02-02T03:42:41.679Z,95.12
2019-02-02T03:43:41.670Z,95.21
2019-02-02T03:44:41.650Z,95.21
2019-02-02T03:45:43.382Z,95.31
2019-02-02T03:46:41.615Z,95.12
2019-02-02T03:47:41.607Z,95.4
2019-02-02T03:48:41.582Z,94.93
2019-02-02T03:49:41.563Z,94.84
2019-02-02T03:50:41.546Z,94.84
2019-02-02T03:51:41.531Z,94.93
2019-02-02T03:52:41.520Z,94.84
2019-02-02T03:53:43.848Z,94.74
2019-02-02T03:54:41.481Z,94.93
2019-02-02T03:55:41.471Z,95.4
2019-02-02T03:56:41.449Z,94.65
2019-02-02T03:57:41.430Z,94.46
2019-02-02T03:58:41.419Z,94.37
2019-02-02T03:59:41.398Z,95.21
2019-02-02T04:00:41.381Z,94.56
2019-02-02T04:01:41.125Z,94.46
2019-02-02T04:02:41.347Z,95.12
2019-02-02T04:03:41.504Z,94.37
2019-02-02T04:04:41.314Z,95.12
2019-02-02T04:05:41.299Z,95.21
2019-02-02T04:06:41.282Z,94.56
2019-02-02T04:07:41.264Z,94.74
2019-02-02T04:08:41.255Z,94.56
2019-02-02T04:09:41.235Z,94.56
2019-02-02T04:10:41.221Z,94.27
2019-02-02T04:11:43.355Z,94.27
2019-02-02T04:12:41.186Z,94.46
2019-02-02T04:13:41.169Z,94.56
2019-02-02T04:14:41.147Z,94.18
2019-02-02T04:15:41.133Z,94.74
2019-02-02T04:16:41.126Z,94.46
2019-02-02T04:17:41.101Z,94.37
2019-02-02T04:18:41.081Z,94.27
2019-02-02T04:19:41.067Z,94.46
2019-02-02T04:20:41.050Z,94.37
2019-02-02T04:21:41.034Z,94.65
2019-02-02T04:22:41.017Z,94.65
2019-02-02T04:23:41.002Z,94.46
2019-02-02T04:24:40.988Z,95.21
2019-02-02T04:25:40.968Z,94.56
2019-02-02T04:26:40.950Z,94.56
2019-02-02T04:27:40.937Z,94.65
2019-02-02T04:28:40.925Z,94.46
2019-02-02T04:29:40.900Z,94.93
2019-02-02T04:30:40.884Z,94.65
2019-02-02T04:31:40.871Z,94.56
2019-02-02T04:32:40.856Z,94.27
2019-02-02T04:33:40.838Z,94.08
2019-02-02T04:34:40.818Z,94.65
2019-02-02T04:35:40.812Z,94.74
2019-02-02T04:36:40.789Z,94.18
2019-02-02T04:37:40.907Z,94.56
2019-02-02T04:38:40.757Z,94.46
2019-02-02T04:39:40.787Z,94.65
2019-02-02T04:40:40.723Z,94.27
2019-02-02T04:41:40.708Z,94.37
2019-02-02T04:42:40.690Z,94.46
2019-02-02T04:43:40.798Z,94.18
2019-02-02T04:44:40.658Z,94.27
2019-02-02T04:45:40.642Z,94.18
2019-02-02T04:46:40.624Z,94.46
2019-02-02T04:47:40.759Z,94.65
2019-02-02T04:48:40.595Z,94.65
2019-02-02T04:49:40.631Z,94.27
2019-02-02T04:50:40.560Z,94.37
2019-02-02T04:51:40.544Z,94.27
2019-02-02T04:52:40.527Z,94.27
2019-02-02T04:53:40.509Z,94.46
2019-02-02T04:54:40.493Z,94.65
2019-02-02T04:55:40.481Z,94.46
2019-02-02T04:56:40.461Z,94.27
2019-02-02T04:57:40.448Z,94.74
2019-02-02T04:58:40.427Z,93.61
2019-02-02T04:59:40.411Z,93.89
2019-02-02T05:00:40.396Z,94.56
2019-02-02T05:01:40.380Z,94.6
2019-02-02T05:02:40.391Z,94.51
2019-02-02T05:03:40.348Z,94.7
2019-02-02T05:04:40.332Z,94.46
2019-02-02T05:05:40.324Z,94.65
2019-02-02T05:06:40.300Z,94.65
2019-02-02T05:07:40.284Z,95.21
2019-02-02T05:08:40.270Z,94.46
2019-02-02T05:09:40.252Z,95.31
2019-02-02T05:10:40.236Z,95.03
2019-02-02T05:11:40.221Z,95.12
2019-02-02T05:12:40.202Z,94.56
2019-02-02T05:13:40.185Z,94.84
2019-02-02T05:14:40.173Z,94.74
2019-02-02T05:15:40.158Z,95.21
2019-02-02T05:16:40.136Z,95.21
2019-02-02T05:17:40.121Z,94.93
2019-02-02T05:18:40.104Z,94.65
2019-02-02T05:19:40.091Z,95.03
2019-02-02T05:20:40.072Z,94.93
2019-02-02T05:21:40.058Z,95.03
2019-02-02T05:22:40.039Z,95.5
2019-02-02T05:23:40.328Z,95.31
2019-02-02T05:24:40.006Z,95.21
2019-02-02T05:25:39.992Z,95.31
2019-02-02T05:26:39.978Z,95.12
2019-02-02T05:27:39.959Z,95.31
2019-02-02T05:28:39.941Z,95.31
2019-02-02T05:29:44.108Z,95.21
2019-02-02T05:30:39.912Z,95.03
2019-02-02T05:31:39.894Z,95.03
2019-02-02T05:32:39.882Z,94.84
2019-02-02T05:33:39.861Z,95.21
2019-02-02T05:34:39.847Z,95.03
2019-02-02T05:35:39.831Z,95.21
2019-02-02T05:36:39.814Z,95.31
2019-02-02T05:37:39.796Z,95.21
2019-02-02T05:38:39.782Z,95.21
2019-02-02T05:39:39.763Z,95.21
2019-02-02T05:40:39.747Z,95.69
2019-02-02T05:41:39.732Z,95.12
2019-02-02T05:42:39.713Z,95.12
2019-02-02T05:43:39.735Z,95.12
2019-02-02T05:44:39.682Z,95.4
2019-02-02T05:45:39.775Z,95.12
2019-02-02T05:46:39.649Z,95.03
2019-02-02T05:47:39.638Z,95.12
2019-02-02T05:48:39.617Z,95.12
2019-02-02T05:49:39.599Z,95.4
2019-02-02T05:50:39.588Z,95.03
2019-02-02T05:51:39.568Z,95.5
2019-02-02T05:52:39.560Z,94.93
2019-02-02T05:53:39.537Z,95.97
2019-02-02T05:54:39.521Z,95.4
2019-02-02T05:55:39.506Z,95.59
2019-02-02T05:56:39.490Z,95.59
2019-02-02T05:57:39.470Z,95.03
2019-02-02T05:58:39.452Z,95.31
2019-02-02T05:59:39.437Z,95.31
2019-02-02T06:00:39.421Z,95.12
2019-02-02T06:01:39.406Z,95.03
2019-02-02T06:02:39.389Z,95.12
2019-02-02T06:03:39.375Z,94.84
2019-02-02T06:04:39.355Z,94.84
2019-02-02T06:05:39.340Z,95.31
2019-02-02T06:06:39.322Z,95.12
2019-02-02T06:07:39.308Z,94.79
2019-02-02T06:08:39.290Z,95.36
2019-02-02T06:09:39.279Z,95.07
2019-02-02T06:10:39.261Z,95.31
2019-02-02T06:11:39.241Z,95.21
2019-02-02T06:12:39.226Z,95.31
2019-02-02T06:13:39.211Z,94.93
2019-02-02T06:14:39.194Z,95.21
2019-02-02T06:15:39.177Z,95.17
2019-02-02T06:16:39.162Z,95.4
2019-02-02T06:17:39.148Z,95.21
2019-02-02T06:18:39.128Z,95.07
2019-02-02T06:19:39.112Z,95.26
2019-02-02T06:20:39.096Z,95.21
2019-02-02T06:21:39.080Z,95.26
2019-02-02T06:22:39.064Z,95.69
2019-02-02T06:23:39.046Z,95.36
2019-02-02T06:24:39.032Z,95.17
2019-02-02T06:25:39.023Z,95.26
2019-02-02T06:26:39.002Z,95.07
2019-02-02T06:27:38.988Z,94.84
2019-02-02T06:28:38.969Z,95.55
2019-02-02T06:29:38.951Z,95.26
2019-02-02T06:30:38.934Z,95.17
2019-02-02T06:31:38.919Z,94.89
2019-02-02T06:32:38.905Z,95.07
2019-02-02T06:33:38.889Z,95.07
2019-02-02T06:34:38.872Z,94.7
2019-02-02T06:35:38.856Z,94.51
2019-02-02T06:36:38.840Z,94.98
2019-02-02T06:37:38.833Z,95.07
2019-02-02T06:38:38.805Z,94.79
2019-02-02T06:39:38.793Z,94.79
2019-02-02T06:40:38.773Z,95.26
2019-02-02T06:41:38.757Z,95.36
2019-02-02T06:42:38.744Z,95.26
2019-02-02T06:43:38.731Z,95.36
2019-02-02T06:44:38.711Z,95.17
2019-02-02T06:45:38.696Z,95.26
2019-02-02T06:46:45.988Z,95.55
2019-02-02T06:47:38.667Z,95.45
2019-02-02T06:48:38.648Z,95.07
2019-02-02T06:49:38.634Z,95.17
2019-02-02T06:50:38.617Z,95.26
2019-02-02T06:51:38.598Z,94.89
2019-02-02T06:52:38.586Z,95.07
2019-02-02T06:53:38.573Z,94.98
2019-02-02T06:54:38.612Z,94.98
2019-02-02T06:55:38.537Z,95.55
2019-02-02T06:56:38.519Z,95.17
2019-02-02T06:57:38.507Z,95.26
2019-02-02T06:58:38.487Z,95.07
2019-02-02T06:59:38.470Z,95.17
2019-02-02T07:00:38.455Z,95.17
2019-02-02T07:01:38.489Z,95.26
2019-02-02T07:02:38.420Z,95.45
2019-02-02T07:03:38.406Z,95.17
2019-02-02T07:04:38.394Z,94.98
2019-02-02T07:05:38.375Z,95.17
2019-02-02T07:06:38.360Z,95.64
2019-02-02T07:07:38.341Z,95.17
2019-02-02T07:08:38.324Z,95.26
2019-02-02T07:09:38.313Z,95.26
2019-02-02T07:10:38.295Z,95.07
2019-02-02T07:11:38.279Z,95.26
2019-02-02T07:12:38.267Z,95.17
2019-02-02T07:13:38.697Z,95.36
2019-02-02T07:14:38.229Z,94.98
2019-02-02T07:15:38.338Z,94.98
2019-02-02T07:16:38.212Z,95.26
2019-02-02T07:17:38.182Z,95.07
2019-02-02T07:18:38.167Z,95.17
2019-02-02T07:19:38.155Z,94.98
2019-02-02T07:20:38.140Z,94.98
2019-02-02T07:21:38.115Z,94.42
2019-02-02T07:22:38.102Z,94.42
2019-02-02T07:23:38.085Z,94.89
2019-02-02T07:24:38.070Z,95.07
2019-02-02T07:25:38.061Z,94.42
2019-02-02T07:26:38.037Z,94.51
2019-02-02T07:27:38.020Z,94.6
2019-02-02T07:28:38.006Z,94.6
2019-02-02T07:29:37.988Z,94.51
2019-02-02T07:30:37.982Z,94.6
2019-02-02T07:31:37.961Z,94.7
2019-02-02T07:32:37.942Z,94.32
2019-02-02T07:33:37.925Z,94.42
2019-02-02T07:34:37.912Z,94.23
2019-02-02T07:35:37.892Z,94.32
2019-02-02T07:36:37.877Z,94.51
2019-02-02T07:37:37.865Z,94.51
2019-02-02T07:38:37.844Z,94.13
2019-02-02T07:39:37.833Z,94.51
2019-02-02T07:40:37.814Z,94.42
2019-02-02T07:41:37.800Z,94.7
2019-02-02T07:42:37.782Z,94.6
2019-02-02T07:43:37.767Z,94.42
2019-02-02T07:44:37.751Z,94.51
2019-02-02T07:45:37.742Z,93.56
2019-02-02T07:46:37.717Z,93.84
2019-02-02T07:47:37.701Z,93.94
2019-02-02T07:48:37.686Z,94.04
2019-02-02T07:49:37.671Z,93.37
2019-02-02T07:50:37.683Z,93.27
2019-02-02T07:51:37.638Z,93.23
2019-02-02T07:52:37.624Z,93.7
2019-02-02T07:53:37.608Z,93.8
2019-02-02T07:54:37.592Z,93.32
2019-02-02T07:55:37.611Z,93.8
2019-02-02T07:56:37.560Z,93.99
2019-02-02T07:57:37.544Z,94.74
2019-02-02T07:58:37.529Z,93.7
2019-02-02T07:59:37.517Z,93.61
2019-02-02T08:00:43.507Z,93.99
2019-02-02T08:01:37.490Z,93.51
2019-02-02T08:02:37.466Z,94.65
2019-02-02T08:03:37.452Z,94.56
2019-02-02T08:04:37.438Z,94.37
2019-02-02T08:05:37.431Z,94.65
2019-02-02T08:06:37.409Z,94.65
2019-02-02T08:07:37.391Z,93.8
2019-02-02T08:08:37.376Z,94.08
2019-02-02T08:09:37.359Z,93.89
2019-02-02T08:10:37.346Z,93.7
2019-02-02T08:11:37.335Z,94.65
2019-02-02T08:12:37.313Z,94.74
2019-02-02T08:13:37.301Z,93.89
2019-02-02T08:14:37.284Z,93.8
2019-02-02T08:15:37.265Z,93.8
2019-02-02T08:16:37.250Z,93.32
2019-02-02T08:17:37.360Z,92.85
2019-02-02T08:18:37.220Z,92.94
2019-02-02T08:19:37.212Z,93.23
2019-02-02T08:20:37.191Z,93.04
2019-02-02T08:21:37.175Z,92.28
2019-02-02T08:22:37.158Z,92.85
2019-02-02T08:23:37.246Z,92.66
2019-02-02T08:24:38.615Z,92.76
2019-02-02T08:25:37.153Z,93.04
2019-02-02T08:26:37.100Z,93.32
2019-02-02T08:27:37.082Z,93.13
2019-02-02T08:28:37.066Z,93.42
2019-02-02T08:29:37.053Z,93.7
2019-02-02T08:30:38.478Z,93.7
2019-02-02T08:31:37.019Z,93.8
2019-02-02T08:32:37.005Z,93.89
2019-02-02T08:33:36.995Z,93.32
2019-02-02T08:34:36.988Z,93.23
2019-02-02T08:35:36.962Z,92.94
2019-02-02T08:36:36.944Z,92.47
2019-02-02T08:37:36.934Z,92.42
2019-02-02T08:38:36.917Z,93.37
2019-02-02T08:39:36.899Z,93.56
2019-02-02T08:40:36.889Z,93.75
2019-02-02T08:41:36.868Z,93.18
2019-02-02T08:42:36.853Z,93.27
2019-02-02T08:43:36.839Z,92.61
2019-02-02T08:44:36.823Z,93.27
2019-02-02T08:45:36.811Z,93.84
2019-02-02T08:46:36.795Z,93.75
2019-02-02T08:47:36.778Z,93.84
2019-02-02T08:48:36.762Z,94.04
2019-02-02T08:49:36.753Z,93.65
2019-02-02T08:50:36.737Z,93.84
2019-02-02T08:51:36.721Z,93.84
2019-02-02T08:52:36.701Z,94.42
2019-02-02T08:53:36.722Z,94.65
2019-02-02T08:54:36.673Z,95.41
2019-02-02T08:55:36.726Z,94.93
2019-02-02T08:56:36.848Z,94.18
2019-02-02T08:57:36.634Z,94.56
2019-02-02T08:58:36.616Z,94.65
2019-02-02T08:59:36.595Z,93.99
2019-02-02T09:00:36.616Z,94.37
2019-02-02T09:01:36.571Z,94.74
2019-02-02T09:02:36.559Z,94.65
2019-02-02T09:03:36.571Z,94.18
2019-02-02T09:04:36.524Z,94.56
2019-02-02T09:05:36.666Z,94.37
2019-02-02T09:06:41.364Z,94.7
2019-02-02T09:07:38.341Z,94.37
2019-02-02T09:08:36.463Z,95.31
2019-02-02T09:09:36.451Z,94.84
2019-02-02T09:10:36.434Z,94.37
2019-02-02T09:11:36.416Z,94.74
2019-02-02T09:12:36.401Z,94.74
2019-02-02T09:13:39.288Z,94.56
2019-02-02T09:14:36.369Z,94.65
2019-02-02T09:15:36.355Z,94.6
2019-02-02T09:16:36.349Z,94.56
2019-02-02T09:17:36.328Z,94.74
2019-02-02T09:18:36.310Z,94.6
2019-02-02T09:19:36.295Z,93.56
2019-02-02T09:20:36.282Z,93.75
2019-02-02T09:21:36.023Z,93.75
2019-02-02T09:22:36.256Z,93.65
2019-02-02T09:23:36.237Z,94.04
2019-02-02T09:24:36.220Z,93.75
2019-02-02T09:25:36.207Z,94.6
2019-02-02T09:26:36.199Z,94.32
2019-02-02T09:27:36.176Z,94.32
2019-02-02T09:28:36.462Z,94.7
2019-02-02T09:29:36.147Z,94.51
2019-02-02T09:30:36.134Z,93.75
2019-02-02T09:31:36.118Z,94.51
2019-02-02T09:32:36.102Z,94.79
2019-02-02T09:33:36.089Z,94.13
2019-02-02T09:34:36.210Z,94.6
2019-02-02T09:35:36.067Z,94.32
2019-02-02T09:36:36.046Z,94.32
2019-02-02T09:37:36.030Z,94.6
2019-02-02T09:38:36.016Z,94.98
2019-02-02T09:39:35.999Z,94.89
2019-02-02T09:40:35.988Z,94.7
2019-02-02T09:41:35.971Z,94.89
2019-02-02T09:42:35.959Z,94.79
2019-02-02T09:43:35.944Z,94.51
2019-02-02T09:44:35.929Z,94.6
2019-02-02T09:45:35.912Z,94.7
2019-02-02T09:46:35.899Z,94.79
2019-02-02T09:47:35.885Z,94.42
2019-02-02T09:48:35.871Z,94.6
2019-02-02T09:49:35.859Z,94.7
2019-02-02T09:50:35.842Z,94.51
2019-02-02T09:51:35.825Z,94.51
2019-02-02T09:52:35.815Z,94.6
2019-02-02T09:53:35.800Z,94.51
2019-02-02T09:54:35.787Z,94.89
2019-02-02T09:55:35.769Z,94.32
2019-02-02T09:56:35.759Z,94.51
2019-02-02T09:57:36.881Z,94.51
2019-02-02T09:58:35.724Z,94.13
2019-02-02T09:59:35.712Z,94.32
2019-02-02T10:00:35.697Z,94.13
2019-02-02T10:01:35.685Z,94.13
2019-02-02T10:02:35.668Z,94.46
2019-02-02T10:03:35.653Z,94.56
2019-02-02T10:04:35.640Z,95.03
2019-02-02T10:05:35.625Z,94.65
2019-02-02T10:06:35.609Z,94.89
2019-02-02T10:07:35.596Z,94.79
2019-02-02T10:08:35.589Z,94.6
2019-02-02T10:09:35.568Z,95.65
2019-02-02T10:10:35.652Z,94.7
2019-02-02T10:11:35.538Z,94.7
2019-02-02T10:12:35.527Z,94.79
2019-02-02T10:13:35.510Z,94.79
2019-02-02T10:14:35.495Z,95.17
2019-02-02T10:15:35.484Z,94.79
2019-02-02T10:16:35.465Z,94.79
2019-02-02T10:17:35.451Z,94.13
2019-02-02T10:18:35.435Z,94.7
2019-02-02T10:19:35.422Z,94.74
2019-02-02T10:20:35.413Z,94.37
2019-02-02T10:21:35.393Z,93.89
2019-02-02T10:22:35.380Z,93.89
2019-02-02T10:23:35.368Z,94.84
2019-02-02T10:24:35.358Z,94.74
2019-02-02T10:25:35.342Z,94.74
2019-02-02T10:26:35.325Z,94.74
2019-02-02T10:27:35.322Z,94.56
2019-02-02T10:28:35.292Z,94.46
2019-02-02T10:29:35.038Z,94.74
2019-02-02T10:30:35.264Z,94.84
2019-02-02T10:31:42.016Z,94.18
2019-02-02T10:32:35.236Z,94.65
2019-02-02T10:33:35.224Z,94.84
2019-02-02T10:34:35.206Z,94.74
2019-02-02T10:35:35.192Z,94.37
2019-02-02T10:36:35.179Z,94.37
2019-02-02T10:37:35.165Z,94.84
2019-02-02T10:38:35.152Z,94.56
2019-02-02T10:39:35.135Z,94.37
2019-02-02T10:40:35.123Z,94.74
2019-02-02T10:41:35.114Z,94.74
2019-02-02T10:42:35.092Z,94.84
2019-02-02T10:43:35.077Z,93.89
2019-02-02T10:44:35.065Z,93.89
2019-02-02T10:45:35.050Z,94.18
2019-02-02T10:46:35.039Z,94.46
2019-02-02T10:47:35.032Z,95.6
2019-02-02T10:48:35.006Z,95.5
2019-02-02T10:49:34.991Z,95.31
2019-02-02T10:50:34.977Z,95.22
2019-02-02T10:51:34.965Z,95.41
2019-02-02T10:52:34.949Z,94.74
2019-02-02T10:53:34.935Z,94.93
2019-02-02T10:54:34.919Z,95.41
2019-02-02T10:55:34.908Z,94.65
2019-02-02T10:56:34.890Z,94.93
2019-02-02T10:57:34.878Z,94.65
2019-02-02T10:58:34.864Z,94.56
2019-02-02T10:59:34.850Z,95.03
2019-02-02T11:00:34.838Z,94.74
2019-02-02T11:01:34.823Z,94.65
2019-02-02T11:02:34.813Z,94.84
2019-02-02T11:03:34.795Z,94.56
2019-02-02T11:04:34.810Z,94.56
2019-02-02T11:05:34.917Z,94.46
2019-02-02T11:06:34.919Z,94.84
2019-02-02T11:07:34.835Z,94.46
2019-02-02T11:08:34.511Z,94.56
2019-02-02T11:09:34.750Z,94.37
2019-02-02T11:10:34.990Z,94.46
2019-02-02T11:11:34.801Z,94.65
2019-02-02T11:12:34.792Z,94.56
2019-02-02T11:13:34.994Z,94.84
2019-02-02T11:14:34.733Z,94.56
2019-02-02T11:15:34.868Z,94.84
2019-02-02T11:16:34.716Z,94.84
2019-02-02T11:17:34.825Z,95.03
2019-02-02T11:18:34.634Z,94.27
2019-02-02T11:19:34.863Z,94.84
2019-02-02T11:20:34.758Z,94.84
2019-02-02T11:21:34.699Z,94.56
2019-02-02T11:22:34.589Z,94.84
2019-02-02T11:23:34.602Z,94.93
2019-02-02T11:24:34.547Z,95.31
2019-02-02T11:25:34.749Z,95.03
2019-02-02T11:26:34.531Z,95.5
2019-02-02T11:27:34.536Z,95.12
2019-02-02T11:28:34.449Z,95.41
2019-02-02T11:29:34.425Z,95.5
2019-02-02T11:30:34.477Z,95.5
2019-02-02T11:31:34.399Z,95.5
2019-02-02T11:32:34.383Z,95.22
2019-02-02T11:33:34.367Z,95.22
2019-02-02T11:34:34.356Z,95.5
2019-02-02T11:35:34.343Z,95.6
2019-02-02T11:36:34.325Z,95.41
2019-02-02T11:37:34.312Z,95.79
2019-02-02T11:38:34.297Z,95.6
2019-02-02T11:39:34.286Z,95.41
2019-02-02T11:40:34.371Z,95.41
2019-02-02T11:41:34.262Z,95.6
2019-02-02T11:42:34.243Z,95.31
2019-02-02T11:43:34.229Z,95.5
2019-02-02T11:44:34.213Z,95.69
2019-02-02T11:45:34.199Z,95.12
2019-02-02T11:46:34.187Z,95.22
2019-02-02T11:47:34.171Z,95.5
2019-02-02T11:48:34.156Z,95.31
2019-02-02T11:49:34.142Z,94.84
2019-02-02T11:50:34.128Z,95.6
2019-02-02T11:51:34.120Z,94.65
2019-02-02T11:52:34.099Z,94.74
2019-02-02T11:53:37.085Z,94.27
2019-02-02T11:54:34.073Z,94.65
2019-02-02T11:55:34.063Z,94.74
2019-02-02T11:56:34.042Z,94.46
2019-02-02T11:57:34.030Z,94.56
2019-02-02T11:58:34.015Z,94.46
2019-02-02T11:59:34.000Z,94.65
2019-02-02T12:00:33.986Z,94.65
2019-02-02T12:01:33.988Z,94.46
2019-02-02T12:02:33.958Z,94.74
2019-02-02T12:03:33.702Z,94.56
2019-02-02T12:04:33.930Z,94.74
2019-02-02T12:05:33.916Z,94.46
2019-02-02T12:06:33.901Z,94.42
2019-02-02T12:07:33.891Z,94.23
2019-02-02T12:08:33.882Z,94.37
2019-02-02T12:09:33.858Z,94.74
2019-02-02T12:10:33.848Z,94.46
2019-02-02T12:11:33.834Z,94.74
2019-02-02T12:12:33.820Z,94.42
2019-02-02T12:13:33.938Z,94.56
2019-02-02T12:14:33.788Z,94.37
2019-02-02T12:15:33.777Z,94.46
2019-02-02T12:16:33.764Z,94.56
2019-02-02T12:17:33.746Z,94.56
2019-02-02T12:18:33.871Z,94.74
2019-02-02T12:19:33.728Z,94.93
2019-02-02T12:20:35.829Z,94.74
2019-02-02T12:21:33.691Z,94.89
2019-02-02T12:22:33.681Z,95.31
2019-02-02T12:23:33.664Z,95.22
2019-02-02T12:24:33.649Z,95.22
2019-02-02T12:25:33.652Z,95.46
2019-02-02T12:26:33.620Z,95.5
2019-02-02T12:27:33.618Z,95.5
2019-02-02T12:28:33.592Z,95.31
2019-02-02T12:29:33.579Z,95.5
2019-02-02T12:30:33.569Z,95.31
2019-02-02T12:31:33.552Z,95.41
2019-02-02T12:32:33.535Z,95.5
2019-02-02T12:33:33.523Z,95.69
2019-02-02T12:34:33.509Z,95.6
2019-02-02T12:35:33.500Z,95.31
2019-02-02T12:36:33.480Z,95.5
2019-02-02T12:37:33.465Z,95.41
2019-02-02T12:38:33.451Z,95.5
2019-02-02T12:39:33.437Z,95.5
2019-02-02T12:40:33.423Z,95.6
2019-02-02T12:41:33.410Z,95.31
2019-02-02T12:42:33.394Z,95.31
2019-02-02T12:43:33.381Z,95.22
2019-02-02T12:44:33.366Z,95.31
2019-02-02T12:45:33.353Z,95.41
2019-02-02T12:46:33.340Z,95.6
2019-02-02T12:47:33.325Z,95.41
2019-02-02T12:48:34.833Z,95.41
2019-02-02T12:49:33.297Z,95.5
2019-02-02T12:50:33.282Z,95.22
2019-02-02T12:51:33.269Z,95.22
2019-02-02T12:52:33.255Z,95.31
2019-02-02T12:53:33.239Z,95.69
2019-02-02T12:54:33.233Z,95.41
2019-02-02T12:55:33.223Z,95.12